createdAt,value
2022-10-09T00:02:10.883Z,14.13
2022-10-09T00:07:35.932Z,13.45
2022-10-09T00:12:59.496Z,12.20
2022-10-09T00:18:23.106Z,11.73
2022-10-09T00:23:48.408Z,11.18
2022-10-09T00:29:12.292Z,12.80
2022-10-09T00:34:35.857Z,12.38
2022-10-09T00:40:00.758Z,13.50
2022-10-09T00:45:24.659Z,13.73
2022-10-09T00:50:52.363Z,15.45
2022-10-09T00:56:17.341Z,13.50
2022-10-09T01:01:42.234Z,16.25
2022-10-09T01:07:20.001Z,15.75
2022-10-09T01:12:51.485Z,18.02
2022-10-09T01:18:22.791Z,17.67
2022-10-09T01:24:02.114Z,21.92
2022-10-09T01:29:33.053Z,23.70
2022-10-09T01:34:58.164Z,23.10
2022-10-09T01:40:22.921Z,20.70
2022-10-09T01:45:50.868Z,26.23
2022-10-09T01:51:16.479Z,29.77
2022-10-09T01:56:40.655Z,32.28
2022-10-09T02:02:06.997Z,34.03
2022-10-09T02:07:32.439Z,36.47
2022-10-09T02:13:00.105Z,33.60
2022-10-09T02:18:32.579Z,33.85
2022-10-09T02:23:58.530Z,33.42
2022-10-09T02:29:22.506Z,35.05
2022-10-09T02:34:47.620Z,36.25
2022-10-09T02:40:12.288Z,46.10
2022-10-09T02:45:35.860Z,48.95
2022-10-09T02:51:01.367Z,49.70
2022-10-09T02:56:25.150Z,52.03
2022-10-09T03:01:48.877Z,46.10
2022-10-09T03:07:13.890Z,44.00
2022-10-09T03:12:37.452Z,42.75
2022-10-09T03:18:01.203Z,51.35
2022-10-09T03:23:26.934Z,61.90
2022-10-09T03:28:52.044Z,56.95
2022-10-09T03:34:15.941Z,52.67
2022-10-09T03:39:40.842Z,48.00
2022-10-09T03:45:06.320Z,44.90
2022-10-09T03:50:29.850Z,46.67
2022-10-09T03:55:54.918Z,48.90
2022-10-09T04:01:18.582Z,50.08
2022-10-09T04:06:42.231Z,41.80
2022-10-09T04:12:07.391Z,46.13
2022-10-09T04:17:30.961Z,40.30
2022-10-09T04:22:54.558Z,37.63
2022-10-09T04:28:19.540Z,36.78
2022-10-09T04:33:43.208Z,37.72
2022-10-09T04:39:07.097Z,39.53
2022-10-09T04:44:32.031Z,40.72
2022-10-09T04:49:55.554Z,43.17
2022-10-09T04:55:19.198Z,41.20
2022-10-09T05:00:45.635Z,45.10
2022-10-09T05:06:11.395Z,39.65
2022-10-09T05:11:37.223Z,40.03
2022-10-09T05:17:14.624Z,39.90
2022-10-09T05:22:38.855Z,36.85
2022-10-09T05:28:02.610Z,37.00
2022-10-09T05:33:29.101Z,33.03
2022-10-09T05:38:52.676Z,33.33
2022-10-09T05:44:16.339Z,32.38
2022-10-09T05:49:41.250Z,32.03
2022-10-09T05:55:05.250Z,29.77
2022-10-09T06:00:28.924Z,30.40
2022-10-09T06:05:54.014Z,27.63
2022-10-09T06:11:19.897Z,27.92
2022-10-09T06:16:45.612Z,31.00
2022-10-09T06:22:10.655Z,32.00
2022-10-09T06:27:34.227Z,31.90
2022-10-09T06:32:57.824Z,27.10
2022-10-09T06:38:22.830Z,24.48
2022-10-09T06:43:50.842Z,25.05
2022-10-09T06:49:14.485Z,22.67
2022-10-09T06:54:39.488Z,21.25
2022-10-09T07:00:03.129Z,18.92
2022-10-09T07:05:26.707Z,15.15
2022-10-09T07:10:51.698Z,13.15
2022-10-09T07:16:20.348Z,10.00
2022-10-09T07:21:48.955Z,9.52
2022-10-09T07:27:13.898Z,13.35
2022-10-09T07:32:37.536Z,13.48
2022-10-09T07:38:01.193Z,13.10
2022-10-09T07:43:26.128Z,12.43
2022-10-09T07:48:50.867Z,11.38
2022-10-09T07:54:14.464Z,10.15
2022-10-09T07:59:39.440Z,10.07
2022-10-09T08:05:03.066Z,9.32
2022-10-09T08:10:26.974Z,8.68
2022-10-09T08:15:52.035Z,8.38
2022-10-09T08:21:17.834Z,9.45
2022-10-09T08:26:45.416Z,7.55
2022-10-09T08:32:10.845Z,6.97
2022-10-09T08:37:34.551Z,6.40
2022-10-09T08:43:04.500Z,6.70
2022-10-09T08:48:32.091Z,6.93
2022-10-09T08:54:02.760Z,6.18
2022-10-09T08:59:26.902Z,6.00
2022-10-09T09:05:08.885Z,5.25
2022-10-09T09:10:41.738Z,5.72
2022-10-09T09:16:12.855Z,5.45
2022-10-09T09:21:46.313Z,4.80
2022-10-09T09:27:13.877Z,4.63
2022-10-09T09:32:39.992Z,5.68
2022-10-09T09:38:05.025Z,4.97
2022-10-09T09:43:28.661Z,6.03
2022-10-09T09:48:53.684Z,4.03
2022-10-09T09:54:22.091Z,4.63
2022-10-09T09:59:45.700Z,4.50
2022-10-09T10:05:18.259Z,4.38
2022-10-09T10:10:47.922Z,5.55
2022-10-09T10:16:22.885Z,4.37
2022-10-09T10:21:49.006Z,4.13
2022-10-09T10:27:23.314Z,4.45
2022-10-09T10:32:54.411Z,4.80
2022-10-09T10:38:23.775Z,4.70
2022-10-09T10:43:52.742Z,4.70
2022-10-09T10:49:20.314Z,4.45
2022-10-09T10:54:52.677Z,4.82
2022-10-09T11:00:18.344Z,4.13
2022-10-09T11:05:50.589Z,4.18
2022-10-09T11:11:23.675Z,3.83
2022-10-09T11:17:01.117Z,4.35
2022-10-09T11:22:37.890Z,3.65
2022-10-09T11:28:06.190Z,3.25
2022-10-09T11:33:37.927Z,3.30
2022-10-09T11:39:05.301Z,4.43
2022-10-09T11:44:38.831Z,3.45
2022-10-09T11:50:27.777Z,4.03
2022-10-09T11:56:03.111Z,3.38
2022-10-09T12:01:32.575Z,3.90
2022-10-09T12:06:59.988Z,3.20
2022-10-09T12:12:24.803Z,3.08
2022-10-09T12:17:49.872Z,3.30
2022-10-09T12:23:33.484Z,3.40
2022-10-09T12:29:01.326Z,4.10
2022-10-09T12:34:29.003Z,3.38
2022-10-09T12:39:53.945Z,3.65
2022-10-09T12:45:19.734Z,3.45
2022-10-09T12:50:43.406Z,4.53
2022-10-09T12:56:13.496Z,4.90
2022-10-09T13:07:04.074Z,4.85
2022-10-09T13:12:30.070Z,5.63
2022-10-09T13:17:53.701Z,4.88
2022-10-09T13:23:28.619Z,5.38
2022-10-09T13:28:54.079Z,5.82
2022-10-09T13:34:18.892Z,6.20
2022-10-09T13:39:42.512Z,6.15
2022-10-09T13:45:08.978Z,5.72
2022-10-09T13:50:32.610Z,6.05
2022-10-09T13:56:00.726Z,5.70
2022-10-09T14:01:26.319Z,5.78
2022-10-09T14:06:51.618Z,6.57
2022-10-09T14:12:16.087Z,5.75
2022-10-09T14:17:41.031Z,5.57
2022-10-09T14:23:04.630Z,6.07
2022-10-09T14:28:28.294Z,6.38
2022-10-09T14:33:56.841Z,7.47
2022-10-09T14:39:20.574Z,6.68
2022-10-09T14:44:44.190Z,6.55
2022-10-09T14:50:10.309Z,6.47
2022-10-09T14:55:36.049Z,6.45
2022-10-09T15:01:00.016Z,6.65
2022-10-09T15:06:25.047Z,7.07
2022-10-09T15:11:48.637Z,6.72
2022-10-09T15:17:12.264Z,7.32
2022-10-09T15:22:37.254Z,6.78
2022-10-09T15:28:01.706Z,7.35
2022-10-09T15:33:25.749Z,8.55
2022-10-09T15:38:51.092Z,8.88
2022-10-09T15:44:17.018Z,8.95
2022-10-09T15:49:40.715Z,8.05
2022-10-09T15:55:06.531Z,9.23
2022-10-09T16:00:30.150Z,9.65
2022-10-09T16:05:54.972Z,9.75
2022-10-09T16:11:23.204Z,10.25
2022-10-09T16:16:51.465Z,10.20
2022-10-09T16:22:15.085Z,10.13
2022-10-09T16:27:40.205Z,10.02
2022-10-09T16:33:03.825Z,10.15
2022-10-09T16:38:27.439Z,10.68
2022-10-09T16:43:54.779Z,10.48
2022-10-09T16:49:21.403Z,11.35
2022-10-09T16:54:49.227Z,11.07
2022-10-09T17:00:19.210Z,11.88
2022-10-09T17:05:43.968Z,41.65
2022-10-09T17:11:08.890Z,16.45
2022-10-09T17:16:37.547Z,13.20
2022-10-09T17:22:01.851Z,11.57
2022-10-09T17:27:25.562Z,11.15
2022-10-09T17:32:50.831Z,10.38
2022-10-09T17:38:14.813Z,9.63
2022-10-09T17:43:38.920Z,9.00
2022-10-09T17:49:03.935Z,8.95
2022-10-09T17:54:27.547Z,8.43
2022-10-09T17:59:51.116Z,9.48
2022-10-09T18:05:16.445Z,9.57
2022-10-09T18:10:40.144Z,8.38
2022-10-09T18:16:06.582Z,10.05
2022-10-09T18:21:31.607Z,8.32
2022-10-09T18:26:55.277Z,10.07
2022-10-09T18:32:21.289Z,8.85
2022-10-09T18:37:46.434Z,8.57
2022-10-09T18:43:14.231Z,12.00
2022-10-09T18:48:40.637Z,9.35
2022-10-09T18:54:07.530Z,8.68
2022-10-09T18:59:31.544Z,8.45
2022-10-09T19:04:55.495Z,7.55
2022-10-09T19:10:20.523Z,7.22
2022-10-09T19:15:44.199Z,7.20
2022-10-09T19:21:07.910Z,6.80
2022-10-09T19:26:35.165Z,6.35
2022-10-09T19:31:58.750Z,6.43
2022-10-09T19:37:26.051Z,6.38
2022-10-09T19:42:53.982Z,5.57
2022-10-09T19:48:18.281Z,5.70
2022-10-09T19:53:42.351Z,4.90
2022-10-09T19:59:08.891Z,5.32
2022-10-09T20:04:32.555Z,3.88
2022-10-09T20:09:56.359Z,3.75
2022-10-09T20:15:22.458Z,3.65
2022-10-09T20:20:48.428Z,3.20
2022-10-09T20:26:14.613Z,4.07
2022-10-09T20:31:39.802Z,3.95
2022-10-09T20:37:03.411Z,3.85
2022-10-09T20:42:27.378Z,3.92
2022-10-09T20:47:52.339Z,3.15
2022-10-09T20:53:16.791Z,3.20
2022-10-09T20:58:40.482Z,3.00
2022-10-09T21:04:05.709Z,2.70
2022-10-09T21:09:33.122Z,2.50
2022-10-09T21:14:57.157Z,2.50
2022-10-09T21:20:22.107Z,2.20
2022-10-09T21:25:50.002Z,2.55
2022-10-09T21:31:16.314Z,3.22
2022-10-09T21:37:08.445Z,2.13
2022-10-09T21:42:27.150Z,2.63
2022-10-09T21:47:50.735Z,2.35
2022-10-09T21:53:15.690Z,2.15
2022-10-09T21:58:40.334Z,2.13
2022-10-09T22:04:04.086Z,2.05
2022-10-09T22:09:29.149Z,1.58
2022-10-09T22:14:52.727Z,2.45
2022-10-09T22:20:16.347Z,1.83
2022-10-09T22:25:42.100Z,1.60
2022-10-09T22:31:10.556Z,1.73
2022-10-09T22:36:35.208Z,1.90
2022-10-09T22:42:00.152Z,1.83
2022-10-09T22:47:23.694Z,1.90
2022-10-09T22:52:47.428Z,2.55
2022-10-09T22:58:12.507Z,1.55
2022-10-09T23:03:36.080Z,1.50
2022-10-09T23:09:00.250Z,1.80
2022-10-09T23:14:26.084Z,1.50
2022-10-09T23:19:49.648Z,1.90
2022-10-09T23:25:13.204Z,1.92
2022-10-09T23:30:38.196Z,1.85
2022-10-09T23:36:03.081Z,1.77
2022-10-09T23:41:28.402Z,2.15
2022-10-09T23:46:53.363Z,1.90
2022-10-09T23:52:16.907Z,1.50
2022-10-09T23:57:40.493Z,1.38
